Time;durP1;ratioP1;P1;durP2;ratioP2;P2;SDS_P1;SDS_P2;PMS_P1;PMS_P2;Temp;Humidity;BMP_temperature;BMP_pressure;BME280_temperature;BME280_humidity;BME280_pressure;Samples;Min_cycle;Max_cycle;Signal;HPM_P1;HPM_P2
2021/06/17 00:01:43;;;;;;;;;;;;;;;17.93;66.00;96035.31;5055622;28;20069;-75
2021/06/17 00:04:09;;;;;;;11.43;4.80;;;;;;;17.86;66.09;96028.75;5055879;28;20395;-75
2021/06/17 00:06:35;;;;;;;8.52;3.78;;;;;;;17.76;66.44;96037.69;5054836;28;20048;-75
2021/06/17 00:09:01;;;;;;;12.48;4.55;;;;;;;17.73;66.47;96036.38;5054501;28;20049;-75
2021/06/17 00:11:28;;;;;;;10.88;4.78;;;;;;;17.74;66.43;96037.94;5058681;28;20515;-75
2021/06/17 00:13:54;;;;;;;9.30;4.68;;;;;;;17.67;66.86;96026.84;5055342;28;20519;-75
2021/06/17 00:16:19;;;;;;;9.75;4.68;;;;;;;17.74;66.50;96024.63;5054100;28;20045;-75
2021/06/17 00:18:45;;;;;;;8.98;4.65;;;;;;;17.61;66.88;96027.19;5053723;28;20091;-75
2021/06/17 00:21:11;;;;;;;12.90;4.25;;;;;;;17.48;66.99;96028.66;5054136;28;20090;-75
2021/06/17 00:23:36;;;;;;;10.48;4.38;;;;;;;17.50;67.12;96024.66;5054032;28;20056;-75
2021/06/17 00:26:04;;;;;;;9.10;4.00;;;;;;;17.60;66.47;96029.06;5053663;28;20071;-75
2021/06/17 00:28:31;;;;;;;10.23;4.47;;;;;;;17.64;66.32;96023.94;5053893;28;20497;-75
2021/06/17 00:30:57;;;;;;;11.18;4.63;;;;;;;17.56;66.74;96028.81;5053696;28;20309;-75
2021/06/17 00:33:26;;;;;;;10.57;4.50;;;;;;;17.70;66.11;96020.13;5053312;28;20048;-75
2021/06/17 00:35:51;;;;;;;10.10;4.30;;;;;;;17.62;66.53;96012.81;5052878;28;20045;-75
2021/06/17 00:38:17;;;;;;;9.93;4.35;;;;;;;17.55;66.89;96021.94;5053593;28;20025;-74
2021/06/17 00:40:44;;;;;;;9.10;4.07;;;;;;;17.63;66.25;96009.84;5053265;28;20453;-74
2021/06/17 00:43:10;;;;;;;9.40;4.65;;;;;;;17.63;65.97;96011.72;5053395;28;20074;-75
2021/06/17 00:45:40;;;;;;;10.00;4.57;;;;;;;17.46;66.76;96012.97;5051679;28;20044;-75
2021/06/17 00:48:10;;;;;;;10.30;4.45;;;;;;;17.42;66.60;96011.97;5053478;28;20040;-75
2021/06/17 00:50:39;;;;;;;8.65;4.47;;;;;;;17.49;66.67;96020.41;5057205;28;20045;-75
2021/06/17 00:53:10;;;;;;;10.48;4.78;;;;;;;17.40;66.89;96019.44;5066679;28;20052;-74
2021/06/17 00:55:37;;;;;;;12.20;4.97;;;;;;;17.31;67.06;96010.50;5054359;28;20045;-74
2021/06/17 00:58:03;;;;;;;9.40;4.32;;;;;;;17.29;67.47;96008.13;5053447;28;20044;-74
2021/06/17 01:00:28;;;;;;;11.85;4.82;;;;;;;17.28;67.55;96003.91;5051733;28;20535;-74
2021/06/17 01:02:55;;;;;;;9.10;4.13;;;;;;;17.33;67.18;96003.03;5053587;28;20044;-74
2021/06/17 01:05:23;;;;;;;8.80;4.38;;;;;;;17.35;67.10;96016.84;5052265;28;20067;-74
2021/06/17 01:07:59;;;;;;;11.25;4.95;;;;;;;17.30;67.38;96006.25;5053552;28;20738;-74
2021/06/17 01:10:30;;;;;;;10.85;4.43;;;;;;;17.24;67.54;96008.19;5053457;28;20049;-74
2021/06/17 01:13:16;;;;;;;9.65;4.63;;;;;;;17.23;67.42;96008.47;5053154;28;20044;-74
2021/06/17 01:15:59;;;;;;;11.05;4.70;;;;;;;17.13;67.71;96006.72;5053235;28;20492;-74
2021/06/17 01:18:27;;;;;;;9.70;4.32;;;;;;;16.97;68.69;96002.63;5053446;28;20072;-73
2021/06/17 01:20:55;;;;;;;10.32;4.60;;;;;;;16.88;69.15;96001.66;5053463;28;20335;-74
2021/06/17 01:23:50;;;;;;;8.85;4.35;;;;;;;16.81;69.07;95996.66;5052107;28;20072;-74
2021/06/17 01:26:22;;;;;;;8.82;4.35;;;;;;;16.85;68.92;96000.34;5053166;28;20033;-74
2021/06/17 01:28:52;;;;;;;9.27;4.30;;;;;;;16.78;68.93;96002.53;5053377;28;20049;-74
2021/06/17 01:31:22;;;;;;;10.48;4.80;;;;;;;16.79;68.95;95996.16;5053494;28;20045;-74
2021/06/17 01:33:50;;;;;;;11.43;4.68;;;;;;;16.79;68.53;95982.88;5052995;28;20067;-74
2021/06/17 01:36:20;;;;;;;11.65;4.78;;;;;;;16.84;68.50;95985.47;5052801;28;20519;-74
2021/06/17 01:38:50;;;;;;;8.95;4.32;;;;;;;16.82;68.39;95987.63;5053193;28;20045;-74
2021/06/17 01:41:18;;;;;;;9.70;4.72;;;;;;;16.83;68.39;95970.59;5052958;28;20053;-73
2021/06/17 01:43:46;;;;;;;8.82;4.40;;;;;;;16.73;68.86;95976.00;5051798;28;20109;-74
2021/06/17 01:46:16;;;;;;;11.37;4.50;;;;;;;16.59;69.64;95975.06;5052710;28;20044;-74
2021/06/17 01:48:44;;;;;;;11.02;4.95;;;;;;;16.42;70.45;95968.31;5054091;28;20068;-74
2021/06/17 01:51:13;;;;;;;12.65;5.03;;;;;;;16.31;71.54;95982.72;5056485;28;20382;-74
2021/06/17 01:53:42;;;;;;;10.43;4.93;;;;;;;16.23;71.01;95975.34;5056541;28;20047;-74
2021/06/17 01:56:09;;;;;;;9.30;4.60;;;;;;;16.21;71.58;95978.28;5057120;28;20047;-74
2021/06/17 01:58:36;;;;;;;9.88;4.50;;;;;;;16.26;70.85;95974.81;5073176;28;20056;-74
2021/06/17 02:01:04;;;;;;;10.13;4.60;;;;;;;16.27;71.26;95971.06;5057802;28;20044;-75
2021/06/17 02:03:33;;;;;;;;;;;;;;;16.30;71.12;95970.50;5060647;28;20097;-74
2021/06/17 02:05:59;;;;;;;9.18;4.53;;;;;;;16.19;71.52;95964.47;5078421;28;20341;-75
2021/06/17 02:08:27;;;;;;;10.80;5.10;;;;;;;16.11;72.03;95964.28;5063886;28;20052;-75
2021/06/17 02:10:54;;;;;;;10.75;5.05;;;;;;;16.19;71.37;95963.69;5058927;28;20125;-75
2021/06/17 02:13:21;;;;;;;10.75;5.28;;;;;;;16.27;70.77;95971.06;5057777;28;20101;-74
2021/06/17 02:15:49;;;;;;;9.48;4.82;;;;;;;16.27;70.77;95971.88;5056184;28;20041;-74
2021/06/17 02:18:22;;;;;;;10.90;4.95;;;;;;;16.21;70.91;95969.53;5059346;28;20041;-75
2021/06/17 02:20:49;;;;;;;10.02;5.25;;;;;;;16.18;71.25;95967.41;5060274;28;20044;-75
2021/06/17 02:23:17;;;;;;;11.73;4.70;;;;;;;16.13;71.93;95967.44;5057812;28;20131;-75
2021/06/17 02:25:45;;;;;;;11.77;5.25;;;;;;;16.15;71.52;95960.03;5056987;28;20045;-75
2021/06/17 02:28:13;;;;;;;;;;;;;;;16.11;71.86;95966.94;5056297;28;20045;-75
2021/06/17 02:30:44;;;;;;;12.07;4.50;;;;;;;16.18;71.07;95964.75;5056094;28;20000;-74
2021/06/17 02:33:13;;;;;;;11.48;5.10;;;;;;;16.14;71.28;95956.56;5055685;28;20661;-75
2021/06/17 02:35:43;;;;;;;10.13;5.10;;;;;;;16.04;71.39;95963.81;5056290;28;20095;-75
2021/06/17 02:38:14;;;;;;;10.65;4.80;;;;;;;15.89;71.96;95960.19;5056607;28;20037;-75
2021/06/17 02:40:42;;;;;;;11.80;5.05;;;;;;;15.87;72.25;95957.00;5055482;28;20080;-74
2021/06/17 02:43:14;;;;;;;12.57;5.43;;;;;;;15.93;72.19;95963.88;5055995;28;20048;-75
2021/06/17 02:45:41;;;;;;;9.98;4.97;;;;;;;16.00;71.66;95967.00;5073165;28;20024;-74
2021/06/17 02:48:08;;;;;;;10.13;5.18;;;;;;;15.87;72.24;95970.25;5057687;28;20471;-75
2021/06/17 02:50:33;;;;;;;11.90;4.80;;;;;;;15.89;72.23;95968.16;5055021;28;20075;-75
2021/06/17 02:52:59;;;;;;;12.93;4.97;;;;;;;15.83;72.35;95966.59;5054126;28;20048;-75
2021/06/17 02:55:26;;;;;;;12.48;5.30;;;;;;;15.82;72.65;95969.50;5054686;28;20060;-75
2021/06/17 02:58:03;;;;;;;10.35;5.03;;;;;;;15.72;73.04;95970.38;5055356;28;20047;-75
2021/06/17 03:00:32;;;;;;;11.95;5.35;;;;;;;15.73;72.59;95969.31;5053565;28;20047;-74
2021/06/17 03:03:09;;;;;;;10.80;4.82;;;;;;;15.73;72.96;95969.31;5055671;28;20045;-75
2021/06/17 03:05:41;;;;;;;10.93;5.05;;;;;;;15.63;73.08;95978.09;5055373;28;20120;-74
2021/06/17 03:08:15;;;;;;;11.13;5.47;;;;;;;15.55;73.70;95980.50;5053978;28;20140;-75
2021/06/17 03:10:44;;;;;;;9.98;4.85;;;;;;;15.75;72.93;95983.06;5053952;28;20049;-74
2021/06/17 03:13:12;;;;;;;10.77;5.38;;;;;;;15.62;73.41;95981.00;5055278;28;20520;-74
2021/06/17 03:15:45;;;;;;;9.63;5.00;;;;;;;15.68;72.91;95985.25;5055093;28;20037;-75
2021/06/17 03:18:11;;;;;;;12.57;5.32;;;;;;;15.48;73.83;95984.22;5054359;28;20116;-75
2021/06/17 03:20:40;;;;;;;13.02;5.10;;;;;;;15.51;74.14;95980.25;5054904;28;20040;-74
2021/06/17 03:23:10;;;;;;;12.73;5.47;;;;;;;15.60;73.44;95986.56;5053671;28;20029;-77
2021/06/17 03:25:36;;;;;;;10.70;4.95;;;;;;;15.48;73.58;95989.53;5053786;28;20051;-74
2021/06/17 03:28:07;;;;;;;10.82;4.90;;;;;;;15.44;73.95;95987.69;5054830;28;20036;-74
2021/06/17 03:30:34;;;;;;;11.27;5.40;;;;;;;15.41;74.11;95991.69;5053426;28;20047;-74
2021/06/17 03:33:02;;;;;;;12.10;6.28;;;;;;;15.61;73.64;95995.34;5054105;28;20048;-75
2021/06/17 03:35:32;;;;;;;11.68;5.47;;;;;;;15.57;73.67;95989.78;5054634;28;20049;-74
2021/06/17 03:38:01;;;;;;;12.20;5.80;;;;;;;15.51;73.81;95992.72;5054367;28;20036;-75
2021/06/17 03:40:27;;;;;;;11.60;5.47;;;;;;;15.43;73.97;95994.84;5055172;28;20041;-75
2021/06/17 03:42:55;;;;;;;11.80;5.80;;;;;;;15.33;74.60;95991.44;5053446;28;20041;-74
2021/06/17 03:45:26;;;;;;;13.68;5.63;;;;;;;15.29;74.92;95991.22;5054561;28;20432;-75
2021/06/17 03:47:54;;;;;;;17.30;6.22;;;;;;;15.24;74.52;95996.53;5054819;28;20087;-74
2021/06/17 03:50:23;;;;;;;25.88;7.85;;;;;;;15.24;74.77;96001.81;5054249;28;20115;-74
2021/06/17 03:52:50;;;;;;;15.00;5.95;;;;;;;15.28;74.68;96000.19;5054341;28;20035;-74
2021/06/17 03:55:17;;;;;;;12.57;5.65;;;;;;;15.31;74.77;96004.19;5054522;28;20048;-73
2021/06/17 03:57:45;;;;;;;13.77;6.30;;;;;;;15.34;74.54;96004.44;5054445;28;20041;-75
2021/06/17 04:00:13;;;;;;;11.30;6.03;;;;;;;15.36;74.62;96015.56;5053720;28;20524;-75
2021/06/17 04:02:43;;;;;;;13.27;6.10;;;;;;;15.38;74.75;96004.69;5054466;28;20045;-75
2021/06/17 04:05:10;;;;;;;14.40;5.70;;;;;;;15.35;74.60;96005.25;5054176;28;20204;-75
2021/06/17 04:07:38;;;;;;;15.00;6.55;;;;;;;15.39;74.60;95999.13;5054404;28;20048;-74
2021/06/17 04:10:06;;;;;;;11.85;5.53;;;;;;;15.49;74.34;96012.31;5054826;28;20083;-75
2021/06/17 04:12:34;;;;;;;12.48;6.03;;;;;;;15.62;73.34;96007.53;5051880;28;20045;-74
2021/06/17 04:15:01;;;;;;;11.90;5.95;;;;;;;15.71;72.97;96017.31;5053845;28;20056;-75
2021/06/17 04:17:31;;;;;;;11.60;5.78;;;;;;;15.77;72.90;96015.44;5054179;28;20056;-74
2021/06/17 04:19:59;;;;;;;11.52;6.28;;;;;;;15.79;72.81;96015.94;5054123;28;20124;-74
2021/06/17 04:22:27;;;;;;;13.18;6.75;;;;;;;15.88;73.22;96019.63;5054464;28;20131;-74
2021/06/17 04:24:56;;;;;;;11.65;5.85;;;;;;;15.91;72.59;96021.72;5052779;28;20591;-75
2021/06/17 04:27:23;;;;;;;13.00;6.43;;;;;;;15.93;72.59;96024.09;5052283;28;20045;-75
2021/06/17 04:29:51;;;;;;;12.45;5.88;;;;;;;15.87;73.03;96025.97;5052416;28;20059;-75
2021/06/17 04:32:18;;;;;;;12.23;6.18;;;;;;;15.99;72.59;96034.41;5053016;28;20099;-75
2021/06/17 04:34:48;;;;;;;13.73;6.18;;;;;;;16.04;72.15;96032.81;5055063;28;20077;-74
2021/06/17 04:37:18;;;;;;;12.30;6.05;;;;;;;16.08;71.78;96034.59;5054772;28;20055;-75
2021/06/17 04:39:47;;;;;;;11.82;5.93;;;;;;;16.10;71.64;96032.50;5054201;28;20045;-75
2021/06/17 04:42:14;;;;;;;10.85;6.03;;;;;;;16.18;71.54;96041.72;5053202;28;20051;-75
2021/06/17 04:44:43;;;;;;;12.52;5.97;;;;;;;16.17;72.45;96045.44;5054892;28;20040;-75
2021/06/17 04:47:10;;;;;;;11.43;5.75;;;;;;;16.25;71.47;96045.66;5055112;28;20043;-77
2021/06/17 04:49:39;;;;;;;13.65;6.03;;;;;;;16.36;70.93;96050.88;5054519;28;20048;-74
2021/06/17 04:52:08;;;;;;;13.30;5.97;;;;;;;16.42;71.03;96053.25;5054633;28;20424;-75
2021/06/17 04:54:35;;;;;;;12.55;6.15;;;;;;;16.53;70.93;96054.75;5054840;28;20123;-75
2021/06/17 04:57:02;;;;;;;11.73;6.53;;;;;;;16.71;70.58;96052.53;5054008;28;20037;-75
2021/06/17 04:59:28;;;;;;;12.18;6.38;;;;;;;16.77;70.13;96054.84;5054190;28;20037;-75
2021/06/17 05:01:55;;;;;;;14.55;6.15;;;;;;;16.97;69.56;96055.75;5054716;28;20095;-75
2021/06/17 05:04:21;;;;;;;13.02;6.55;;;;;;;17.32;68.19;96062.59;5054990;28;20524;-75
2021/06/17 05:12:16;;;;;;;14.13;5.72;;;;;;;19.99;59.34;96059.06;5054390;28;20051;-75
2021/06/17 05:14:42;;;;;;;11.23;5.45;;;;;;;20.49;57.51;96061.72;5061679;28;20053;-74
2021/06/17 05:17:08;;;;;;;10.52;5.40;;;;;;;21.04;55.43;96056.16;5060987;28;20075;-75
2021/06/17 05:19:34;;;;;;;12.32;5.57;;;;;;;21.52;53.50;96055.44;5061644;28;20041;-75
2021/06/17 05:22:00;;;;;;;12.02;5.38;;;;;;;22.11;52.68;96052.47;5058364;28;20052;-75
2021/06/17 05:24:26;;;;;;;10.98;5.10;;;;;;;22.56;51.33;96061.03;5059939;28;20132;-76
2021/06/17 05:26:52;;;;;;;13.02;5.90;;;;;;;23.04;48.72;96060.06;5058958;28;20048;-74
2021/06/17 05:29:19;;;;;;;11.48;5.47;;;;;;;23.55;47.54;96058.31;5058367;28;20052;-75
2021/06/17 05:31:45;;;;;;;12.43;6.28;;;;;;;23.53;47.65;96058.66;5059199;28;20036;-75
2021/06/17 05:34:11;;;;;;;13.75;6.07;;;;;;;23.74;47.79;96045.31;5059524;28;20124;-76
2021/06/17 05:36:39;;;;;;;10.75;6.10;;;;;;;23.91;47.01;96051.72;5060083;28;20068;-76
2021/06/17 05:39:05;;;;;;;12.00;6.10;;;;;;;24.10;46.63;96046.69;5059557;28;20128;-75
2021/06/17 05:41:34;;;;;;;12.38;6.72;;;;;;;24.24;45.66;96051.81;5060485;28;20500;-76
2021/06/17 05:44:02;;;;;;;11.05;6.07;;;;;;;24.56;45.22;96055.72;5059102;28;20033;-75
2021/06/17 05:46:30;;;;;;;12.75;6.03;;;;;;;24.84;44.96;96056.72;5058508;28;20048;-73
2021/06/17 05:48:55;;;;;;;11.05;6.75;;;;;;;24.94;43.51;96052.06;5058888;28;20037;-75
2021/06/17 05:51:21;;;;;;;13.57;6.18;;;;;;;25.00;43.64;96058.81;5058435;28;20041;-75
2021/06/17 05:53:46;;;;;;;11.75;6.38;;;;;;;24.83;43.38;96054.38;5058423;28;20041;-74
2021/06/17 05:56:12;;;;;;;10.25;5.95;;;;;;;25.03;44.33;96055.47;5058860;28;20508;-74
2021/06/17 05:58:38;;;;;;;11.98;6.68;;;;;;;25.19;42.84;96055.66;5058969;28;20071;-74
2021/06/17 06:01:04;;;;;;;10.85;5.80;;;;;;;25.41;42.56;96049.06;5056892;28;20049;-74
2021/06/17 06:03:33;;;;;;;10.18;6.00;;;;;;;25.29;42.26;96053.31;5057139;28;20105;-74
2021/06/17 06:05:59;;;;;;;12.23;6.28;;;;;;;25.46;42.70;96054.25;5057069;28;20025;-74
2021/06/17 06:08:25;;;;;;;10.35;5.93;;;;;;;25.31;43.31;96056.44;5056482;28;20049;-74
2021/06/17 06:10:50;;;;;;;14.25;6.10;;;;;;;25.24;43.53;96056.22;5057193;28;20045;-72
2021/06/17 06:13:16;;;;;;;12.50;5.60;;;;;;;25.26;42.82;96056.66;5057513;28;20041;-75
2021/06/17 06:15:42;;;;;;;12.52;6.35;;;;;;;25.34;42.43;96061.16;5060611;28;20215;-77
2021/06/17 06:18:10;;;;;;;12.13;6.55;;;;;;;25.72;42.16;96064.66;5070861;28;20092;-75
2021/06/17 06:20:37;;;;;;;;;;;;;;;26.11;39.39;96068.63;5060275;28;20120;-75
2021/06/17 06:23:04;;;;;;;10.30;5.63;;;;;;;25.18;41.33;96072.88;5058200;28;20026;-75
2021/06/17 06:25:32;;;;;;;11.00;5.67;;;;;;;25.51;39.79;96070.19;5055791;28;20072;-74
2021/06/17 06:27:58;;;;;;;10.82;5.28;;;;;;;25.86;39.85;96068.63;5056594;28;20033;-75
2021/06/17 06:30:24;;;;;;;14.10;5.65;;;;;;;25.85;39.76;96074.38;5056777;28;20455;-75
2021/06/17 06:32:50;;;;;;;10.02;4.90;;;;;;;26.23;40.75;96068.59;5057035;28;20060;-75
2021/06/17 06:35:16;;;;;;;11.55;5.57;;;;;;;26.11;40.21;96071.31;5054778;28;20047;-74
2021/06/17 06:37:50;;;;;;;10.10;5.68;;;;;;;26.55;38.47;96066.88;5055925;28;20048;-75
2021/06/17 06:40:17;;;;;;;13.30;6.40;;;;;;;26.57;37.79;96066.53;5055601;28;20045;-75
2021/06/17 06:42:42;;;;;;;10.63;6.03;;;;;;;27.09;37.56;96077.25;5057345;28;20045;-75
2021/06/17 06:45:12;;;;;;;12.65;5.63;;;;;;;26.93;37.16;96073.72;5057163;28;20037;-74
2021/06/17 06:47:37;;;;;;;10.25;5.28;;;;;;;26.82;36.59;96070.72;5056440;28;20044;-75
2021/06/17 06:50:05;;;;;;;11.13;5.13;;;;;;;26.28;37.51;96065.69;5057255;28;20061;-73
2021/06/17 06:52:31;;;;;;;9.25;5.20;;;;;;;26.13;38.75;96063.69;5058940;28;20073;-74
2021/06/17 06:54:59;;;;;;;10.52;6.10;;;;;;;26.79;37.57;96067.91;5057236;28;20052;-74
2021/06/17 06:57:25;;;;;;;13.30;5.57;;;;;;;26.13;38.47;96069.06;5058455;28;20039;-73
2021/06/17 06:59:53;;;;;;;11.70;5.63;;;;;;;26.15;38.36;96074.91;5057116;28;20068;-74
2021/06/17 07:02:19;;;;;;;8.98;5.20;;;;;;;26.73;37.46;96080.09;5058489;28;20041;-74
2021/06/17 07:04:45;;;;;;;11.20;5.07;;;;;;;26.91;38.05;96076.75;5057436;28;20041;-74
2021/06/17 07:07:10;;;;;;;11.80;5.53;;;;;;;27.25;37.12;96074.59;5056185;28;20037;-75
2021/06/17 07:09:36;;;;;;;35.30;8.00;;;;;;;27.97;36.41;96080.63;5056574;28;20041;-75
2021/06/17 07:12:04;;;;;;;11.23;5.22;;;;;;;28.06;35.76;96074.28;5057115;28;20048;-75
2021/06/17 07:14:33;;;;;;;10.88;5.05;;;;;;;28.47;34.76;96073.69;5056996;28;20049;-74
2021/06/17 07:17:00;;;;;;;12.77;5.63;;;;;;;28.34;34.74;96072.22;5056414;28;20045;-75
2021/06/17 07:19:26;;;;;;;9.95;5.38;;;;;;;28.42;34.18;96065.84;5055947;28;20036;-74
2021/06/17 07:21:52;;;;;;;10.90;4.88;;;;;;;29.03;33.69;96065.16;5054551;28;20099;-74
2021/06/17 07:24:18;;;;;;;10.80;5.00;;;;;;;29.06;33.70;96070.97;5055809;28;20116;-74
2021/06/17 07:26:45;;;;;;;10.82;5.60;;;;;;;28.50;34.76;96064.84;5054099;28;20140;-75
2021/06/17 07:29:12;;;;;;;10.57;5.38;;;;;;;28.94;34.52;96072.69;5053613;28;20500;-74
2021/06/17 07:31:37;;;;;;;11.57;5.50;;;;;;;29.57;32.78;96076.19;5055173;28;20039;-74
2021/06/17 07:34:04;;;;;;;12.57;4.95;;;;;;;29.58;32.81;96085.88;5054555;28;20052;-74
2021/06/17 07:36:33;;;;;;;12.18;5.18;;;;;;;29.58;33.13;96089.38;5055960;28;20072;-74
2021/06/17 07:39:01;;;;;;;9.30;4.60;;;;;;;30.27;31.91;96094.75;5054488;28;20041;-75
2021/06/17 07:41:27;;;;;;;9.68;5.20;;;;;;;30.17;32.37;96093.44;5054789;28;20045;-74
2021/06/17 07:43:56;;;;;;;10.65;5.90;;;;;;;30.25;31.63;96084.25;5053266;28;20103;-74
2021/06/17 07:46:25;;;;;;;12.50;6.32;;;;;;;30.43;31.91;96079.06;5053751;28;20041;-74
2021/06/17 07:48:51;;;;;;;11.05;5.32;;;;;;;30.78;31.21;96080.69;5053782;28;20075;-74
2021/06/17 07:51:17;;;;;;;10.10;5.00;;;;;;;30.82;31.32;96082.31;5054956;28;20041;-74
2021/06/17 07:53:43;;;;;;;8.60;5.22;;;;;;;31.15;30.43;96082.66;5053028;28;20072;-74
2021/06/17 07:56:09;;;;;;;8.95;4.65;;;;;;;32.50;29.10;96086.53;5054983;28;20071;-73
2021/06/17 07:58:35;;;;;;;11.50;7.38;;;;;;;31.94;29.60;96090.44;5053357;28;20419;-74
2021/06/17 08:01:01;;;;;;;10.07;5.60;;;;;;;31.51;29.76;96084.63;5055235;28;20049;-75
2021/06/17 08:03:28;;;;;;;14.85;6.00;;;;;;;31.52;29.69;96097.06;5053954;28;20075;-74
2021/06/17 08:05:54;;;;;;;11.93;6.03;;;;;;;31.25;30.35;96092.88;5054116;28;20037;-74
2021/06/17 08:08:20;;;;;;;14.68;4.80;;;;;;;31.70;29.99;96088.28;5054219;28;20033;-74
2021/06/17 08:10:46;;;;;;;12.35;5.65;;;;;;;31.88;29.56;96089.22;5054996;28;20091;-75
2021/06/17 08:13:11;;;;;;;12.57;5.82;;;;;;;32.94;28.09;96080.19;5054274;28;20057;-74
2021/06/17 08:15:39;;;;;;;14.30;6.05;;;;;;;32.31;28.80;96086.81;5054133;28;20385;-74
2021/06/17 08:18:06;;;;;;;20.45;6.15;;;;;;;32.74;27.95;96082.41;5053273;28;20119;-74
2021/06/17 08:20:33;;;;;;;10.85;5.63;;;;;;;32.32;29.08;96093.81;5053353;28;20036;-75
2021/06/17 08:22:59;;;;;;;10.40;5.93;;;;;;;32.70;28.28;96086.25;5052982;28;20094;-74
2021/06/17 08:25:27;;;;;;;14.35;6.32;;;;;;;33.32;28.26;96084.16;5053492;28;20049;-74
2021/06/17 08:27:53;;;;;;;12.68;6.00;;;;;;;33.86;27.18;96084.25;5051761;28;20040;-74
2021/06/17 08:30:20;;;;;;;13.25;6.75;;;;;;;33.43;27.84;96084.22;5053200;28;20057;-74
2021/06/17 08:32:48;;;;;;;12.50;6.05;;;;;;;33.42;27.43;96088.13;5053401;28;20041;-74
2021/06/17 08:35:18;;;;;;;12.63;6.50;;;;;;;33.73;27.29;96091.25;5053883;28;20049;-73
2021/06/17 08:37:45;;;;;;;13.93;5.85;;;;;;;33.89;26.89;96083.44;5053442;28;20045;-74
2021/06/17 08:40:11;;;;;;;13.15;6.55;;;;;;;33.76;27.11;96080.34;5053217;28;20044;-74
2021/06/17 08:42:37;;;;;;;14.90;6.38;;;;;;;33.81;26.78;96088.16;5053981;28;20071;-73
2021/06/17 08:45:06;;;;;;;13.63;6.20;;;;;;;34.24;27.20;96088.13;5053714;28;20049;-73
2021/06/17 08:47:35;;;;;;;11.95;6.10;;;;;;;34.63;25.95;96088.06;5052750;28;20037;-74
2021/06/17 08:50:02;;;;;;;9.75;5.13;;;;;;;34.63;25.68;96088.06;5053804;28;20128;-74
2021/06/17 08:52:35;;;;;;;13.63;5.63;;;;;;;35.25;25.07;96078.44;5053585;28;20037;-73
2021/06/17 08:55:12;;;;;;;13.52;5.97;;;;;;;34.82;25.07;96075.09;5054313;28;20041;-74
2021/06/17 08:57:38;;;;;;;10.07;4.88;;;;;;;35.07;24.09;96083.22;5055560;28;20127;-73
2021/06/17 09:00:31;;;;;;;10.50;4.87;;;;;;;34.82;24.29;96072.38;5058442;28;20424;-74
2021/06/17 09:03:00;;;;;;;11.20;4.32;;;;;;;34.97;24.12;96077.41;5059255;28;20119;-73
2021/06/17 09:05:26;;;;;;;14.65;4.72;;;;;;;34.48;25.56;96075.63;5058217;28;20033;-73
2021/06/17 09:07:53;;;;;;;8.90;4.22;;;;;;;34.35;25.96;96072.50;5059506;28;20086;-73
2021/06/17 09:10:20;;;;;;;;;;;;;;;34.68;24.75;96071.25;5055977;28;20040;-73
2021/06/17 09:12:49;;;;;;;10.73;5.80;;;;;;;35.08;24.04;96063.69;5057427;28;19920;-73
2021/06/17 09:15:27;;;;;;;10.05;4.50;;;;;;;35.88;23.24;96070.97;5056025;28;20049;-74
2021/06/17 09:18:10;;;;;;;8.23;3.72;;;;;;;35.91;23.13;96074.88;5055897;28;20075;-74
2021/06/17 09:20:37;;;;;;;8.05;3.75;;;;;;;35.87;23.29;96077.63;5057077;28;20385;-74
2021/06/17 09:23:21;;;;;;;11.13;4.13;;;;;;;35.66;23.13;96073.09;5058745;28;20143;-74
2021/06/17 09:25:57;;;;;;;11.32;4.13;;;;;;;35.23;23.58;96065.16;5057605;28;20127;-76
2021/06/17 09:28:23;;;;;;;9.80;4.70;;;;;;;34.56;26.37;96060.78;5058143;28;20048;-75
2021/06/17 09:30:49;;;;;;;11.23;5.00;;;;;;;34.34;26.83;96054.56;5057076;28;20072;-74
2021/06/17 09:33:19;;;;;;;9.63;4.20;;;;;;;34.02;26.45;96045.66;5057956;28;20048;-74
2021/06/17 09:35:53;;;;;;;7.30;4.10;;;;;;;33.90;26.62;96057.72;5057010;28;20377;-74
2021/06/17 09:38:19;;;;;;;11.45;4.85;;;;;;;33.40;27.90;96055.72;5060205;28;20045;-75
2021/06/17 09:40:50;;;;;;;10.35;4.72;;;;;;;33.25;28.33;96056.88;5058279;28;20496;-74
2021/06/17 09:43:22;;;;;;;9.75;4.32;;;;;;;32.95;28.65;96065.38;5058331;28;20067;-74
2021/06/17 09:45:56;;;;;;;8.40;4.25;;;;;;;32.75;29.19;96066.84;5058733;28;20041;-75
2021/06/17 09:48:30;;;;;;;13.00;4.95;;;;;;;32.81;30.01;96059.84;5056952;28;20124;-73
2021/06/17 09:50:56;;;;;;;10.05;4.32;;;;;;;32.08;31.13;96066.06;5057280;28;20546;-74
2021/06/17 09:53:26;;;;;;;8.60;4.78;;;;;;;31.34;32.33;96058.84;5058520;28;20037;-74
2021/06/17 09:55:52;;;;;;;8.57;4.53;;;;;;;30.74;33.58;96055.44;5057517;28;20095;-77
2021/06/17 09:58:44;;;;;;;12.33;5.00;;;;;;;30.90;32.52;96047.09;5059043;22;20557;-72
2021/06/17 10:01:16;;;;;;;10.32;4.72;;;;;;;30.67;32.42;96047.16;5034945;28;20045;-72
2021/06/17 10:03:58;;;;;;;10.07;4.50;;;;;;;30.82;31.28;96040.78;5034338;28;20041;-70
2021/06/17 10:06:24;;;;;;;9.27;4.40;;;;;;;30.65;31.49;96041.34;5037720;28;20057;-72
2021/06/17 10:08:51;;;;;;;10.57;5.00;;;;;;;30.72;31.64;96049.59;5053573;28;20041;-71
2021/06/17 10:11:17;;;;;;;10.88;5.10;;;;;;;31.02;32.65;96044.13;5053916;28;20072;-71
2021/06/17 10:13:44;;;;;;;8.57;4.45;;;;;;;31.06;31.43;96043.00;5055091;28;20052;-71
2021/06/17 10:16:16;;;;;;;10.35;6.05;;;;;;;31.01;31.29;96043.34;5054365;28;20041;-72
2021/06/17 10:18:44;;;;;;;12.88;4.95;;;;;;;30.87;31.83;96050.53;5054227;28;20116;-72
2021/06/17 10:21:13;;;;;;;8.48;4.55;;;;;;;30.66;32.32;96056.47;5054476;28;20401;-71
2021/06/17 10:23:38;;;;;;;9.77;4.75;;;;;;;30.53;31.77;96056.72;5054133;28;20033;-71
2021/06/17 10:26:05;;;;;;;8.38;4.50;;;;;;;30.54;33.60;96054.78;5052814;28;20048;-72
2021/06/17 10:28:38;;;;;;;10.38;4.97;;;;;;;30.73;33.32;96056.59;5054398;28;20635;-72
2021/06/17 10:31:06;;;;;;;9.27;4.70;;;;;;;30.76;33.61;96055.84;5053965;28;20037;-72
2021/06/17 10:33:34;;;;;;;9.95;5.07;;;;;;;30.98;33.19;96052.22;5053889;28;20048;-71
2021/06/17 10:36:23;;;;;;;9.60;4.95;;;;;;;31.26;32.09;96040.09;5054568;28;20087;-72
2021/06/17 10:39:17;;;;;;;13.85;4.50;;;;;;;31.02;31.74;96054.97;5052178;28;20120;-72
2021/06/17 10:42:22;;;;;;;8.43;4.25;;;;;;;31.17;32.21;96053.19;5054037;28;20075;-73
2021/06/17 10:44:54;;;;;;;10.68;5.47;;;;;;;31.23;31.83;96046.28;5054074;28;20051;-70
2021/06/17 10:47:54;;;;;;;7.95;4.63;;;;;;;31.43;31.40;96055.81;5054136;28;20101;-72
2021/06/17 10:50:24;;;;;;;9.30;4.63;;;;;;;31.47;31.28;96053.91;5053715;28;20135;-71
2021/06/17 10:52:52;;;;;;;8.10;4.05;;;;;;;31.41;30.88;96052.69;5053986;28;20040;-72
2021/06/17 10:55:19;;;;;;;9.38;4.03;;;;;;;31.23;30.96;96047.06;5053901;28;20058;-72
2021/06/17 10:57:52;;;;;;;8.30;4.07;;;;;;;31.31;30.44;96048.69;5053389;28;20102;-72
2021/06/17 11:00:48;;;;;;;8.00;4.10;;;;;;;31.47;29.56;96050.41;5053303;28;20037;-72
2021/06/17 11:03:38;;;;;;;14.02;4.43;;;;;;;31.43;28.52;96052.28;5053585;28;20040;-72
2021/06/17 11:06:04;;;;;;;8.98;4.00;;;;;;;31.54;28.62;96056.69;5053416;28;20052;-71
2021/06/17 11:08:30;;;;;;;10.95;5.28;;;;;;;31.32;28.81;96049.50;5053224;28;20037;-71
2021/06/17 11:10:59;;;;;;;8.25;3.75;;;;;;;31.26;28.82;96050.97;5053630;28;20508;-70
2021/06/17 11:13:31;;;;;;;9.05;4.15;;;;;;;31.51;29.08;96054.72;5053318;28;20128;-72
2021/06/17 11:15:57;;;;;;;9.25;4.25;;;;;;;31.65;27.49;96056.00;5053975;28;20059;-72
2021/06/17 11:19:05;;;;;;;7.22;3.40;;;;;;;31.69;26.04;96051.34;5053318;28;20106;-71
2021/06/17 11:21:38;;;;;;;9.38;3.85;;;;;;;31.84;25.64;96047.63;5052669;28;20148;-72
2021/06/17 11:24:30;;;;;;;7.93;3.63;;;;;;;31.62;25.98;96033.81;5053050;28;20657;-71
2021/06/17 11:26:58;;;;;;;9.50;3.72;;;;;;;31.69;26.47;96043.97;5053317;28;20120;-71
2021/06/17 11:29:54;;;;;;;10.38;5.82;;;;;;;31.93;27.10;96039.94;5053464;28;20041;-72
2021/06/17 11:32:24;;;;;;;;;;;;;;;31.95;26.38;96036.81;5053622;28;20045;-71
2021/06/17 11:34:51;;;;;;;8.68;3.78;;;;;;;32.20;26.84;96040.47;5068712;28;20379;-71
2021/06/17 11:37:17;;;;;;;7.50;3.63;;;;;;;32.41;26.23;96036.34;5053123;28;20083;-71
2021/06/17 11:39:47;;;;;;;12.05;3.80;;;;;;;32.37;26.11;96034.38;5053155;28;20045;-72
2021/06/17 11:42:19;;;;;;;8.48;3.78;;;;;;;32.27;25.49;96034.28;5053105;28;20040;-71
2021/06/17 11:44:59;;;;;;;8.55;4.47;;;;;;;32.18;25.58;96028.41;5052495;28;20041;-72